Observations
| Time | Sensor | AQI | SAQ | Temp °C | Hum % | Pres Pa | CO μg/m³ | H₂S μg/m³ | NO μg/m³ | NO₂ μg/m³ | O₃ μg/m³ | SO₂ μg/m³ | CO₂e PPM | VOC PPM | PM1 μg/m³ | PM2.5 μg/m³ | PM4 μg/m³ | PM10 μg/m³ | TPS µm |
|---|---|---|---|---|---|---|---|---|---|---|---|---|---|---|---|---|---|---|---|
| Tuesday 11 August 2026 | |||||||||||||||||||
| 17:28 | Trim Patrick St | 3 | 38.4 | 21 | 69,776 | 0 | 0 | 0.01 | 14.53 | 92.55 | 25.98 | 3.71 | 9.88 | 10.87 | |||||
| 17:27 | Trim Patrick St | 3 | 38.3 | 20 | 69,758 | 0 | 4.38 | 0.05 | 14.9 | 77.4 | 26.74 | 2.86 | 10.76 | 11.84 | |||||
| 17:26 | Trim Patrick St | 3 | 38.3 | 20 | 69,768 | 0 | 3.05 | 0.06 | 18.52 | 90.44 | 25.62 | 2.86 | 9.95 | 10.95 | |||||
| 17:26 | Trim Market St | 3 | 38 | 19 | 66,865 | 0 | 18.85 | 0.16 | 17.33 | 60.7 | 6.05 | 0.71 | 4.34 | 4.73 | |||||
| 17:25 | Trim Patrick St | 3 | 38.2 | 20 | 69,778 | 0 | 0 | 0.11 | 16.24 | 88.57 | 26.7 | 2.86 | 9.97 | 10.96 | |||||
| 17:24 | Trim Patrick St | 3 | 38.1 | 20 | 69,762 | 0 | 0 | 0.15 | 15.09 | 70.58 | 26.86 | 2.86 | 9.96 | 10.95 | |||||
| 17:23 | Trim Patrick St | 3 | 38 | 21 | 69,770 | 0 | 10.3 | 0.13 | 20.68 | 123.76 | 26.67 | 4.57 | 12.36 | 13.59 | |||||
| 17:23 | Trim Market St | 3 | 38.3 | 19 | 66,928 | 0 | 9.06 | 0.12 | 16.38 | 42.92 | 5.52 | 2.85 | 6.57 | 7.23 | |||||
| 17:22 | Trim Patrick St | 3 | 37.9 | 22 | 69,750 | 0 | 5.17 | 0.17 | 15.13 | 78.79 | 26.1 | 3.71 | 10.63 | 11.7 | |||||
| 17:21 | Trim Patrick St | 3 | 37.9 | 20 | 69,728 | 0 | 9.04 | 0.24 | 17.33 | 88.47 | 25.54 | 3.71 | 9.93 | 10.92 | |||||
| 17:20 | Trim Patrick St | 3 | 37.8 | 22 | 69,701 | 0 | 10.33 | 0.23 | 15.77 | 102.91 | 27.35 | 3.71 | 10.68 | 11.75 | |||||
| 17:19 | Trim Patrick St | 3 | 37.8 | 22 | 69,695 | 0 | 9.3 | 0.21 | 16.49 | 106.7 | 25.58 | 11.43 | 18.9 | 20.79 | |||||
| 17:18 | Trim Patrick St | 3 | 37.7 | 22 | 69,689 | 0 | 9.34 | 0.21 | 14.91 | 106.19 | 27.17 | 4.57 | 11.46 | 12.61 | |||||
| 17:18 | Trim Market St | 3 | 38.5 | 19 | 66,953 | 0 | 1.8 | 0.09 | 16.02 | 38.71 | 5.23 | 1.43 | 5.46 | 6.01 | |||||
| 17:17 | Trim Patrick St | 3 | 37.6 | 22 | 69,709 | 0 | 6.51 | 0.23 | 14.25 | 73.38 | 26.43 | 4.57 | 11.43 | 12.58 | |||||
| 17:17 | Trim Market St | 3 | 38.5 | 19 | 66,965 | 0 | 14.3 | 0.03 | 15.76 | 70.25 | 6.51 | 1.43 | 5.44 | 5.67 | |||||
| 17:16 | Trim Patrick St | 3 | 37.5 | 23 | 69,707 | 0 | 13.26 | 0.27 | 15.22 | 82.43 | 26.65 | 3.71 | 11.43 | 12.57 | |||||
| 17:16 | Trim Market St | 3 | 38.5 | 20 | 66,979 | 0 | 21.16 | 0.05 | 18.71 | 49.61 | 6.05 | 1.43 | 5.43 | 5.98 | |||||
| 17:15 | Trim Patrick St | 3 | 37.5 | 22 | 69,705 | 0 | 14.86 | 0.32 | 14.67 | 91.64 | 27.52 | 4.57 | 12.3 | 13.53 | |||||
| 17:15 | Trim Market St | 3 | 38.5 | 20 | 66,965 | 0 | 31.08 | 0.06 | 33.25 | 58.55 | 6.1 | 0.71 | 5.43 | 5.97 | |||||